createdAt,value
2019-02-02T00:04:00.892Z,96602.63
2019-02-02T00:14:01.620Z,96589.08
2019-02-02T00:24:03.219Z,96592.91
2019-02-02T00:34:04.136Z,96605.48
2019-02-02T00:44:05.288Z,96607.50
2019-02-02T00:54:06.287Z,96613.91
2019-02-02T01:04:06.963Z,96591.14
2019-02-02T01:14:07.842Z,96603.78
2019-02-02T01:24:08.587Z,96613.04
2019-02-02T01:34:09.496Z,96624.99
2019-02-02T01:44:10.231Z,96610.08
2019-02-02T01:54:10.925Z,96618.23
2019-02-02T02:04:11.627Z,96614.08
2019-02-02T02:14:12.396Z,96614.97
2019-02-02T02:24:13.307Z,96604.90
2019-02-02T02:34:14.312Z,96598.78
2019-02-02T02:44:15.062Z,96604.45
2019-02-02T02:54:15.786Z,96650.41
2019-02-02T03:04:16.713Z,96664.28
2019-02-02T03:14:17.618Z,96656.22
2019-02-02T03:24:18.581Z,96645.65
2019-02-02T03:34:19.336Z,96634.80
2019-02-02T03:44:20.303Z,96612.49
2019-02-02T03:54:20.998Z,96610.36
2019-02-02T04:04:22.011Z,96630.11
2019-02-02T04:14:23.017Z,96642.88
2019-02-02T04:24:23.788Z,96661.58
2019-02-02T04:34:24.485Z,96678.08
2019-02-02T04:44:25.564Z,96680.39
2019-02-02T04:54:26.478Z,96678.47
2019-02-02T05:04:27.367Z,96699.73
2019-02-02T05:14:28.367Z,96689.67
2019-02-02T05:24:29.376Z,96681.08
2019-02-02T05:34:30.436Z,96692.94
2019-02-02T05:44:50.907Z,96699.67
2019-02-02T05:54:53.142Z,96701.87
2019-02-02T06:04:53.909Z,96701.61
2019-02-02T06:14:54.820Z,96708.78
2019-02-02T06:25:33.161Z,96724.34
2019-02-02T06:35:34.106Z,96740.70
2019-02-02T06:45:35.798Z,96767.08
2019-02-02T06:55:36.568Z,96778.64
2019-02-02T07:05:37.668Z,96795.80
2019-02-02T07:15:38.596Z,96804.16
2019-02-02T07:25:40.158Z,96814.05
2019-02-02T07:35:40.874Z,96837.05
2019-02-02T07:45:41.685Z,96855.64
2019-02-02T07:55:42.459Z,96856.56
2019-02-02T08:05:44.158Z,96874.64
2019-02-02T08:15:44.861Z,96872.53
2019-02-02T08:25:45.904Z,96884.03
2019-02-02T08:35:46.934Z,96905.31
2019-02-02T08:45:47.999Z,96909.78
2019-02-02T08:55:51.985Z,96933.08
2019-02-02T09:05:53.040Z,96934.19
2019-02-02T09:15:54.157Z,96946.20
2019-02-02T09:25:54.792Z,96946.52
2019-02-02T09:35:55.575Z,96957.82
2019-02-02T09:45:56.231Z,96969.74
2019-02-02T09:55:57.303Z,96967.72
2019-02-02T10:05:57.969Z,96987.55
2019-02-02T10:15:58.985Z,97005.63
2019-02-02T10:26:00.061Z,97026.57
2019-02-02T13:31:57.566Z,97196.84
2019-02-02T13:41:58.577Z,97213.08
2019-02-02T13:51:59.380Z,97217.59
2019-02-02T14:02:00.310Z,97239.06
2019-02-02T14:12:04.151Z,97244.45
2019-02-02T14:22:05.004Z,97249.56
2019-02-02T14:32:05.769Z,97269.02
2019-02-02T14:42:06.757Z,97280.83
2019-02-02T14:52:07.621Z,97281.13
2019-02-02T15:02:08.259Z,97299.95
2019-02-02T15:12:08.939Z,97299.55
2019-02-02T15:22:09.893Z,97321.77
2019-02-02T15:42:55.829Z,97359.69
2019-02-02T15:52:56.673Z,97389.53
2019-02-02T16:02:57.553Z,97409.80
2019-02-02T16:12:58.758Z,97429.33
2019-02-02T16:22:59.705Z,97441.93
2019-02-02T16:33:00.727Z,97468.76
2019-02-02T16:43:01.806Z,97487.30
2019-02-02T16:53:02.763Z,97511.90
2019-02-02T17:03:03.588Z,97526.73
2019-02-02T17:13:04.623Z,97551.57
2019-02-02T17:44:25.045Z,97600.27
2019-02-02T17:54:26.010Z,97615.97
2019-02-02T18:15:07.331Z,97634.41
2019-02-02T18:25:10.807Z,97647.97
2019-02-02T18:35:31.479Z,97675.95
2019-02-02T18:45:32.558Z,97689.09
2019-02-02T18:55:41.590Z,97708.71
2019-02-02T19:05:42.353Z,97719.98
2019-02-02T19:15:43.560Z,97719.81
2019-02-02T19:25:44.433Z,97721.63
2019-02-02T19:35:46.983Z,97746.55
2019-02-02T19:56:31.045Z,97787.19
2019-02-02T20:17:00.274Z,97825.95
2019-02-02T20:27:11.221Z,97856.44
2019-02-02T20:37:20.587Z,97857.64
2019-02-02T20:47:21.537Z,97875.52
